createdAt,value
2019-01-11T00:02:15.042Z,2.99
2019-01-11T00:04:44.589Z,3.02
2019-01-11T00:07:14.037Z,3.04
2019-01-11T00:09:43.530Z,3.01
2019-01-11T00:12:12.967Z,3.05
2019-01-11T00:14:42.388Z,3.08
2019-01-11T00:17:11.901Z,3.09
2019-01-11T00:19:41.377Z,3.09
2019-01-11T00:22:10.999Z,3.11
2019-01-11T00:24:40.457Z,3.08
2019-01-11T00:27:09.973Z,3.11
2019-01-11T00:29:39.452Z,3.21
2019-01-11T00:32:08.928Z,3.17
2019-01-11T00:34:38.450Z,3.25
2019-01-11T00:37:07.974Z,3.27
2019-01-11T00:39:37.506Z,3.38
2019-01-11T00:42:07.113Z,3.41
2019-01-11T00:44:37.604Z,3.48
2019-01-11T00:47:07.120Z,3.50
2019-01-11T00:49:37.487Z,3.47
2019-01-11T00:52:07.079Z,3.59
2019-01-11T00:54:36.617Z,3.58
2019-01-11T00:57:06.311Z,3.59
2019-01-11T00:59:35.902Z,3.64
2019-01-11T01:02:05.491Z,3.66
2019-01-11T01:04:34.955Z,3.63
2019-01-11T01:07:04.437Z,3.75
2019-01-11T01:09:33.916Z,3.75
2019-01-11T01:12:04.110Z,3.81
2019-01-11T01:14:33.685Z,3.89
2019-01-11T01:17:03.733Z,3.89
2019-01-11T01:19:33.279Z,3.91
2019-01-11T01:22:02.888Z,3.93
2019-01-11T01:24:32.336Z,3.96
2019-01-11T01:27:01.861Z,3.99
2019-01-11T01:29:31.346Z,4.02
2019-01-11T01:32:00.897Z,4.06
2019-01-11T01:34:30.452Z,4.13
2019-01-11T01:37:00.062Z,4.14
2019-01-11T01:39:29.531Z,4.14
2019-01-11T01:41:59.180Z,4.17
2019-01-11T01:44:28.680Z,4.18
2019-01-11T01:46:58.264Z,4.24
2019-01-11T01:49:27.874Z,4.22
2019-01-11T01:51:57.391Z,4.26
2019-01-11T01:54:26.805Z,4.39
2019-01-11T01:56:56.227Z,4.34
2019-01-11T01:59:25.748Z,4.39
2019-01-11T02:01:55.246Z,4.38
2019-01-11T02:04:24.741Z,4.42
2019-01-11T02:06:54.276Z,4.43
2019-01-11T02:09:23.755Z,4.50
2019-01-11T02:11:53.239Z,4.48
2019-01-11T02:14:22.832Z,4.49
2019-01-11T02:16:52.378Z,4.49
2019-01-11T02:19:21.879Z,4.54
2019-01-11T02:21:51.339Z,4.63
2019-01-11T02:24:20.868Z,4.62
2019-01-11T02:26:50.374Z,4.60
2019-01-11T02:29:19.918Z,4.64
2019-01-11T02:31:49.394Z,4.65
2019-01-11T02:34:18.988Z,4.63
2019-01-11T02:36:48.470Z,4.68
2019-01-11T02:39:17.961Z,4.66
2019-01-11T02:41:47.449Z,4.71
2019-01-11T02:44:16.968Z,4.79
2019-01-11T02:46:46.402Z,4.74
2019-01-11T02:49:15.936Z,4.79
2019-01-11T02:51:45.526Z,4.74
2019-01-11T02:54:15.051Z,4.81
2019-01-11T02:56:48.119Z,4.82
2019-01-11T02:59:17.613Z,4.88
2019-01-11T03:01:47.117Z,4.90
2019-01-11T03:04:16.632Z,4.91
2019-01-11T03:06:46.144Z,4.93
2019-01-11T03:09:15.600Z,4.99
2019-01-11T03:11:45.389Z,4.95
2019-01-11T03:14:15.075Z,4.94
2019-01-11T03:16:44.956Z,4.99
2019-01-11T03:19:14.721Z,4.96
2019-01-11T03:21:44.447Z,4.96
2019-01-11T03:24:14.070Z,4.97
2019-01-11T03:26:43.605Z,4.99
2019-01-11T03:29:13.123Z,5.01
2019-01-11T03:31:42.627Z,5.01
2019-01-11T03:34:12.096Z,5.00
2019-01-11T03:36:41.560Z,5.01
2019-01-11T03:39:11.113Z,5.08
2019-01-11T03:41:42.278Z,5.07
2019-01-11T03:44:11.752Z,5.11
2019-01-11T03:46:41.229Z,5.15
2019-01-11T03:49:10.750Z,5.23
2019-01-11T03:51:41.153Z,5.41
2019-01-11T03:54:10.640Z,5.48
2019-01-11T03:56:40.100Z,5.56
2019-01-11T03:59:09.600Z,5.65
2019-01-11T04:01:39.048Z,5.68
2019-01-11T04:04:08.609Z,5.72
2019-01-11T04:06:38.047Z,5.80
2019-01-11T04:09:09.608Z,5.82
2019-01-11T04:11:39.055Z,5.79
2019-01-11T04:14:08.570Z,5.92
2019-01-11T04:16:38.039Z,5.94
2019-01-11T04:19:08.177Z,5.87
2019-01-11T04:21:37.640Z,5.97
2019-01-11T04:24:07.120Z,5.97
2019-01-11T04:26:36.636Z,6.04
2019-01-11T04:29:06.093Z,6.01
2019-01-11T04:31:35.570Z,5.97
2019-01-11T04:34:05.024Z,6.01
2019-01-11T04:36:34.498Z,6.02
2019-01-11T04:39:06.009Z,6.05
2019-01-11T04:41:35.489Z,6.06
2019-01-11T04:44:05.008Z,6.05
2019-01-11T04:46:34.471Z,6.07
2019-01-11T04:49:03.977Z,6.11
2019-01-11T04:51:33.536Z,6.06
2019-01-11T04:54:03.028Z,6.06
2019-01-11T04:56:32.551Z,6.05
2019-01-11T04:59:02.103Z,6.10
2019-01-11T05:01:31.601Z,6.04
2019-01-11T05:04:01.099Z,6.10
2019-01-11T05:06:30.628Z,6.09
2019-01-11T05:09:00.114Z,6.07
2019-01-11T05:11:29.569Z,6.05
2019-01-11T05:13:59.090Z,6.06
2019-01-11T05:16:28.749Z,6.12
2019-01-11T05:18:58.376Z,6.13
2019-01-11T05:21:27.857Z,6.14
2019-01-11T05:23:57.355Z,6.18
2019-01-11T05:26:26.814Z,6.13
2019-01-11T05:28:56.388Z,6.16
2019-01-11T05:31:25.848Z,6.12
2019-01-11T05:33:55.355Z,6.14
2019-01-11T05:36:24.882Z,6.16
2019-01-11T05:38:55.341Z,6.14
2019-01-11T05:41:24.835Z,6.18
2019-01-11T05:43:54.352Z,6.19
2019-01-11T05:46:23.810Z,6.20
2019-01-11T05:48:53.278Z,6.19
2019-01-11T05:51:22.777Z,6.18
2019-01-11T05:53:52.228Z,6.20
2019-01-11T05:56:21.722Z,6.25
2019-01-11T05:58:52.898Z,6.24
2019-01-11T06:01:22.374Z,6.23
2019-01-11T06:03:51.883Z,6.29
2019-01-11T06:06:21.459Z,6.28
2019-01-11T06:08:50.931Z,6.24
2019-01-11T06:11:20.377Z,6.31
2019-01-11T06:13:49.883Z,6.35
2019-01-11T06:16:19.336Z,6.36
2019-01-11T06:18:48.835Z,6.47
2019-01-11T06:21:18.317Z,6.45
2019-01-11T06:23:47.826Z,6.46
2019-01-11T06:26:17.297Z,6.49
2019-01-11T06:28:46.794Z,6.58
2019-01-11T06:31:16.279Z,6.54
2019-01-11T06:33:45.766Z,6.61
2019-01-11T06:36:15.307Z,6.60
2019-01-11T06:38:44.734Z,6.63
2019-01-11T06:41:14.255Z,6.64
2019-01-11T06:43:45.104Z,6.65
2019-01-11T06:46:14.761Z,6.72
2019-01-11T06:48:44.259Z,6.71
2019-01-11T06:51:13.747Z,6.75
2019-01-11T06:53:43.204Z,6.81
2019-01-11T06:56:12.730Z,6.78
2019-01-11T06:58:42.242Z,6.76
2019-01-11T07:01:11.749Z,6.69
2019-01-11T07:03:41.382Z,6.75
2019-01-11T07:06:10.951Z,6.76
2019-01-11T07:08:40.516Z,6.74
2019-01-11T07:11:09.994Z,6.76
2019-01-11T07:13:39.515Z,6.76
2019-01-11T07:16:08.991Z,6.78
2019-01-11T07:18:38.676Z,6.75
2019-01-11T07:21:08.186Z,6.78
2019-01-11T07:23:37.694Z,6.77
2019-01-11T07:26:07.183Z,6.81
2019-01-11T07:28:36.652Z,6.79
2019-01-11T07:31:08.054Z,6.81
2019-01-11T07:33:37.518Z,6.87
2019-01-11T07:36:08.629Z,6.91
2019-01-11T07:38:38.251Z,6.98
2019-01-11T07:41:07.218Z,6.88
2019-01-11T07:43:36.693Z,6.94
2019-01-11T07:46:06.245Z,6.90
2019-01-11T07:48:35.944Z,6.94
2019-01-11T07:51:05.475Z,6.85
2019-01-11T07:53:34.957Z,6.86
2019-01-11T07:56:04.506Z,6.91
2019-01-11T07:58:34.038Z,6.86
2019-01-11T08:01:03.639Z,6.85
2019-01-11T08:03:34.437Z,6.87
2019-01-11T08:06:09.716Z,6.89
2019-01-11T08:08:39.234Z,6.89
2019-01-11T08:11:09.814Z,6.86
2019-01-11T08:13:39.355Z,6.86
2019-01-11T08:16:08.844Z,6.85
2019-01-11T08:18:38.355Z,6.90
2019-01-11T08:21:07.839Z,6.89
2019-01-11T08:23:37.347Z,6.88
2019-01-11T08:26:06.874Z,6.82
2019-01-11T08:28:36.397Z,6.88
2019-01-11T08:31:05.870Z,6.95
2019-01-11T08:33:35.433Z,6.96
2019-01-11T08:36:04.931Z,6.93
2019-01-11T08:38:34.474Z,6.95
2019-01-11T08:41:03.989Z,6.92
2019-01-11T08:43:33.470Z,6.92
2019-01-11T08:46:02.987Z,7.03
2019-01-11T08:48:32.632Z,7.05
2019-01-11T08:51:02.808Z,7.08
2019-01-11T08:53:32.350Z,7.06
2019-01-11T08:56:08.112Z,7.14
2019-01-11T08:58:32.980Z,7.14
2019-01-11T09:01:02.438Z,7.07
2019-01-11T09:03:31.933Z,7.06
2019-01-11T09:06:01.380Z,7.04
2019-01-11T09:08:30.928Z,7.02
2019-01-11T09:11:00.476Z,7.03
2019-01-11T09:13:30.252Z,7.01
2019-01-11T09:15:59.729Z,7.04
2019-01-11T09:18:33.814Z,7.03
2019-01-11T09:21:09.197Z,7.04
2019-01-11T09:23:34.555Z,7.05
2019-01-11T09:26:04.076Z,7.05
2019-01-11T09:28:33.598Z,7.07
2019-01-11T09:31:03.111Z,7.11
2019-01-11T09:33:32.610Z,7.07
2019-01-11T09:36:02.083Z,7.11
2019-01-11T09:38:31.615Z,7.13
2019-01-11T09:41:01.109Z,7.10
2019-01-11T09:43:30.559Z,7.06
2019-01-11T09:46:00.238Z,7.05
2019-01-11T09:48:29.740Z,7.08
2019-01-11T09:50:59.195Z,7.10
2019-01-11T09:53:28.697Z,7.11
2019-01-11T09:55:58.259Z,7.09
2019-01-11T09:58:27.790Z,7.10
2019-01-11T10:00:59.242Z,7.14
2019-01-11T10:03:28.539Z,7.14
2019-01-11T10:05:58.019Z,7.15
2019-01-11T10:08:27.542Z,7.17
2019-01-11T10:10:57.029Z,7.19
2019-01-11T10:13:26.507Z,7.22
2019-01-11T10:15:55.985Z,7.30
2019-01-11T10:18:25.490Z,7.36
2019-01-11T10:20:55.059Z,7.41
2019-01-11T10:23:24.551Z,7.47
2019-01-11T10:25:54.194Z,7.53
2019-01-11T10:28:23.694Z,7.58
2019-01-11T10:30:53.196Z,7.62
2019-01-11T10:33:22.665Z,7.62
2019-01-11T10:35:52.181Z,7.62
2019-01-11T10:38:21.678Z,7.70
2019-01-11T10:40:51.163Z,7.77
2019-01-11T10:43:20.833Z,7.82
2019-01-11T10:45:50.419Z,7.81
2019-01-11T10:48:19.895Z,7.87
2019-01-11T10:50:49.498Z,7.86
2019-01-11T10:53:18.964Z,7.87
2019-01-11T10:55:48.445Z,7.94
2019-01-11T10:58:17.918Z,7.94
2019-01-11T11:00:47.463Z,7.91
2019-01-11T11:03:16.962Z,7.93
2019-01-11T11:05:46.505Z,7.98
2019-01-11T11:08:15.998Z,8.00
2019-01-11T11:10:46.021Z,8.04
2019-01-11T11:13:15.522Z,8.06
2019-01-11T11:15:46.743Z,8.11
2019-01-11T11:18:16.193Z,8.13
2019-01-11T11:20:45.708Z,8.14
2019-01-11T11:23:15.178Z,8.14
2019-01-11T11:25:44.710Z,8.15
2019-01-11T11:28:14.204Z,8.14
2019-01-11T11:30:43.725Z,8.12
2019-01-11T11:33:13.291Z,8.09
2019-01-11T11:35:42.806Z,8.09
2019-01-11T11:38:12.352Z,8.10
2019-01-11T11:40:41.835Z,8.10
2019-01-11T11:43:11.361Z,8.08
2019-01-11T11:45:40.858Z,8.11
2019-01-11T11:48:10.319Z,8.16
2019-01-11T11:50:41.816Z,8.13
2019-01-11T11:53:11.335Z,8.13
2019-01-11T11:55:40.807Z,8.11
2019-01-11T11:58:10.265Z,8.12
2019-01-11T12:00:39.793Z,8.08
2019-01-11T12:03:09.260Z,8.07
2019-01-11T12:05:38.760Z,8.04
2019-01-11T12:08:08.245Z,8.01
2019-01-11T12:10:37.761Z,7.98
2019-01-11T12:13:07.275Z,7.97
2019-01-11T12:15:36.837Z,7.96
2019-01-11T12:18:06.326Z,7.93
2019-01-11T12:20:35.853Z,7.91
2019-01-11T12:23:05.367Z,7.91
2019-01-11T12:25:34.845Z,7.85
2019-01-11T12:28:04.363Z,7.82
2019-01-11T12:30:33.856Z,7.81
2019-01-11T12:33:03.325Z,7.76
2019-01-11T12:35:32.816Z,7.75
2019-01-11T12:38:02.425Z,7.73
2019-01-11T12:40:31.887Z,7.77
2019-01-11T12:43:01.391Z,7.75
2019-01-11T12:45:30.852Z,7.69
2019-01-11T12:48:00.392Z,7.68
2019-01-11T12:50:29.911Z,7.64
2019-01-11T12:52:59.380Z,7.65
2019-01-11T12:55:28.862Z,7.67
2019-01-11T12:57:58.354Z,7.62
2019-01-11T13:00:27.831Z,7.59
2019-01-11T13:02:57.360Z,7.60
2019-01-11T13:05:26.869Z,7.57
2019-01-11T13:07:56.697Z,7.56
2019-01-11T13:10:26.199Z,7.56
2019-01-11T13:12:55.708Z,7.54
2019-01-11T13:15:25.221Z,7.51
2019-01-11T13:17:54.720Z,7.47
2019-01-11T13:20:24.211Z,7.48
2019-01-11T13:22:53.718Z,7.52
2019-01-11T13:25:23.196Z,7.48
2019-01-11T13:27:52.665Z,7.46
2019-01-11T13:30:22.172Z,7.45
2019-01-11T13:32:51.642Z,7.46
2019-01-11T13:35:21.162Z,7.43
2019-01-11T13:37:50.678Z,7.44
2019-01-11T13:40:22.159Z,7.43
2019-01-11T13:42:51.659Z,7.47
2019-01-11T13:45:22.508Z,7.44
2019-01-11T13:47:52.174Z,7.39
2019-01-11T13:50:35.842Z,7.37
2019-01-11T13:53:06.343Z,7.34
2019-01-11T13:55:35.851Z,7.32
2019-01-11T13:58:05.341Z,7.33
2019-01-11T14:00:34.854Z,7.32
2019-01-11T14:03:04.419Z,7.34
2019-01-11T14:05:34.069Z,7.31
2019-01-11T14:08:03.511Z,7.36
2019-01-11T14:10:33.026Z,7.29
2019-01-11T14:13:02.552Z,7.25
2019-01-11T14:15:32.089Z,7.30
2019-01-11T14:18:01.540Z,7.29
2019-01-11T14:20:31.042Z,7.28
2019-01-11T14:23:00.577Z,7.26
2019-01-11T14:25:30.064Z,7.17
2019-01-11T14:27:59.528Z,7.21
2019-01-11T14:30:29.143Z,7.20
2019-01-11T14:32:58.704Z,7.14
2019-01-11T14:35:28.205Z,7.14
2019-01-11T14:37:57.667Z,7.12
2019-01-11T14:40:27.174Z,7.13
2019-01-11T14:42:56.650Z,7.08
2019-01-11T14:45:26.182Z,7.08
2019-01-11T14:47:55.739Z,7.13
2019-01-11T14:50:25.340Z,7.01
2019-01-11T14:52:54.819Z,6.99
2019-01-11T14:55:24.306Z,7.06
2019-01-11T14:57:54.026Z,6.97
2019-01-11T15:00:23.519Z,6.93
2019-01-11T15:02:53.098Z,6.90
2019-01-11T15:05:22.606Z,6.90
2019-01-11T15:07:52.181Z,6.84
2019-01-11T15:10:21.677Z,6.72
2019-01-11T15:12:51.177Z,6.76
2019-01-11T15:15:20.676Z,6.79
2019-01-11T15:17:50.252Z,6.75
2019-01-11T15:20:19.755Z,6.69
2019-01-11T15:22:49.264Z,6.62
2019-01-11T15:25:18.766Z,6.51
2019-01-11T15:27:48.274Z,6.49
2019-01-11T15:30:18.783Z,6.54
2019-01-11T15:32:48.256Z,6.43
2019-01-11T15:35:17.738Z,6.54
2019-01-11T15:37:47.295Z,6.60
2019-01-11T15:40:19.440Z,6.61
2019-01-11T15:42:48.926Z,6.65
2019-01-11T15:45:18.409Z,6.58
2019-01-11T15:47:47.929Z,6.61
2019-01-11T15:50:37.280Z,6.69
2019-01-11T15:53:06.792Z,6.61
2019-01-11T15:55:36.293Z,6.61
2019-01-11T15:58:06.802Z,6.62
2019-01-11T16:00:41.318Z,6.60
2019-01-11T16:03:10.918Z,6.66
2019-01-11T16:05:40.387Z,6.69
2019-01-11T16:08:09.913Z,6.66
2019-01-11T16:10:45.305Z,6.58
2019-01-11T16:13:15.954Z,6.62
2019-01-11T16:15:51.617Z,6.50
2019-01-11T16:18:22.615Z,6.46
2019-01-11T16:20:54.314Z,6.51
2019-01-11T16:23:23.887Z,6.47
2019-01-11T16:25:53.503Z,6.44
2019-01-11T16:28:22.997Z,6.43
2019-01-11T16:30:52.487Z,6.36
2019-01-11T16:33:21.993Z,6.35
2019-01-11T16:35:51.474Z,6.29
2019-01-11T16:38:20.965Z,6.17
2019-01-11T16:40:50.427Z,6.10
2019-01-11T16:43:19.896Z,6.16
2019-01-11T16:45:49.409Z,6.15
2019-01-11T16:48:18.881Z,6.04
2019-01-11T16:50:48.371Z,6.07
2019-01-11T16:53:17.850Z,5.90
2019-01-11T16:55:47.354Z,5.86
2019-01-11T16:58:16.926Z,5.82
2019-01-11T17:00:46.421Z,5.83
2019-01-11T17:03:15.895Z,5.73
2019-01-11T17:05:45.425Z,5.71
2019-01-11T17:08:14.901Z,5.66
2019-01-11T17:10:44.469Z,5.58
2019-01-11T17:13:13.943Z,5.61
2019-01-11T17:15:44.438Z,5.60
2019-01-11T17:18:13.931Z,5.56
2019-01-11T17:20:43.434Z,5.55
2019-01-11T17:23:12.902Z,5.59
2019-01-11T17:25:42.435Z,5.61
2019-01-11T17:28:11.831Z,5.58
2019-01-11T17:30:41.363Z,5.54
2019-01-11T17:33:10.878Z,5.49
2019-01-11T17:35:40.368Z,5.46
2019-01-11T17:38:09.848Z,5.42
2019-01-11T17:40:39.353Z,5.43
2019-01-11T17:43:08.873Z,5.40
2019-01-11T17:45:38.388Z,5.37
2019-01-11T17:48:07.868Z,5.39
2019-01-11T17:50:37.375Z,5.36
2019-01-11T17:53:06.893Z,5.36
2019-01-11T17:55:36.391Z,5.35
2019-01-11T17:58:05.933Z,5.32
2019-01-11T18:00:35.610Z,5.28
2019-01-11T18:03:07.273Z,5.32
2019-01-11T18:05:36.842Z,5.26
2019-01-11T18:08:06.357Z,5.26
2019-01-11T18:10:35.843Z,5.23
2019-01-11T18:13:05.344Z,5.26
2019-01-11T18:15:34.928Z,5.23
2019-01-11T18:18:04.437Z,5.20
2019-01-11T18:20:33.905Z,5.19
2019-01-11T18:23:06.976Z,5.19
2019-01-11T18:25:34.580Z,5.22
2019-01-11T18:28:04.096Z,5.22
2019-01-11T18:30:33.636Z,5.10
2019-01-11T18:33:03.139Z,5.04
2019-01-11T18:35:32.599Z,5.02
2019-01-11T18:38:02.143Z,5.09
2019-01-11T18:40:31.642Z,4.98
2019-01-11T18:43:02.073Z,5.07
2019-01-11T18:45:31.624Z,4.99
2019-01-11T18:48:01.123Z,5.01
2019-01-11T18:50:30.681Z,4.93
2019-01-11T18:53:00.172Z,4.91
2019-01-11T18:55:29.647Z,4.89
2019-01-11T18:57:59.118Z,4.80
2019-01-11T19:00:28.516Z,4.75
2019-01-11T19:03:01.880Z,4.82
2019-01-11T19:05:31.441Z,4.80
2019-01-11T19:08:00.970Z,4.91
2019-01-11T19:10:30.514Z,5.06
2019-01-11T19:13:03.266Z,4.99
2019-01-11T19:15:32.769Z,4.98
2019-01-11T19:18:02.284Z,4.98
2019-01-11T19:20:31.864Z,4.89
2019-01-11T19:23:01.369Z,4.91
2019-01-11T19:25:33.546Z,4.87
2019-01-11T19:28:03.564Z,4.85
2019-01-11T19:30:33.178Z,4.78
2019-01-11T19:33:02.657Z,4.77
2019-01-11T19:35:32.214Z,4.68
2019-01-11T19:38:01.848Z,4.69
2019-01-11T19:40:31.400Z,4.63
2019-01-11T19:43:01.144Z,4.59
2019-01-11T19:45:30.804Z,4.58
2019-01-11T19:48:00.729Z,4.67
2019-01-11T19:50:30.269Z,4.66
2019-01-11T19:52:59.781Z,4.67
2019-01-11T19:55:29.412Z,4.71
2019-01-11T19:57:58.917Z,4.74
2019-01-11T20:00:28.441Z,4.72
2019-01-11T20:02:57.925Z,4.76
2019-01-11T20:05:29.321Z,4.80
2019-01-11T20:07:58.825Z,4.76
2019-01-11T20:10:29.949Z,4.70
2019-01-11T20:12:59.825Z,4.68
2019-01-11T20:15:29.693Z,4.76
2019-01-11T20:17:59.338Z,4.70
2019-01-11T20:20:28.925Z,4.69
2019-01-11T20:23:02.544Z,4.77
2019-01-11T20:25:29.836Z,4.65
2019-01-11T20:28:00.167Z,4.61
2019-01-11T20:30:29.832Z,4.65
2019-01-11T20:32:59.778Z,4.61
2019-01-11T20:35:29.649Z,4.68
2019-01-11T20:37:59.304Z,4.64
2019-01-11T20:40:28.819Z,4.55
2019-01-11T20:42:58.650Z,4.58
2019-01-11T20:45:28.542Z,4.64
2019-01-11T20:47:58.454Z,4.57
2019-01-11T20:50:28.327Z,4.59
2019-01-11T20:52:57.916Z,4.59
2019-01-11T20:55:27.408Z,4.61
2019-01-11T20:57:56.911Z,4.51
2019-01-11T21:00:30.312Z,4.53
2019-01-11T21:02:59.815Z,4.51
2019-01-11T21:05:29.363Z,4.55
2019-01-11T21:07:58.878Z,4.49
2019-01-11T21:10:30.248Z,4.55
2019-01-11T21:13:03.715Z,4.62
2019-01-11T21:15:33.590Z,4.60
2019-01-11T21:18:03.155Z,4.54
2019-01-11T21:20:32.680Z,4.61
2019-01-11T21:23:02.186Z,4.66
2019-01-11T21:25:31.660Z,4.58
2019-01-11T21:28:01.176Z,4.55
2019-01-11T21:30:30.652Z,4.55
2019-01-11T21:33:00.177Z,4.62
2019-01-11T21:35:30.201Z,4.69
2019-01-11T21:37:59.729Z,4.59
2019-01-11T21:40:29.187Z,4.69
2019-01-11T21:42:58.712Z,4.70
2019-01-11T21:45:28.218Z,4.70
2019-01-11T21:47:59.486Z,4.75
2019-01-11T21:50:29.261Z,4.71
2019-01-11T21:52:58.762Z,4.81
2019-01-11T21:55:28.247Z,4.70
2019-01-11T21:57:57.815Z,4.65
2019-01-11T22:00:35.915Z,4.61
2019-01-11T22:03:07.540Z,4.73
2019-01-11T22:05:37.023Z,4.78
2019-01-11T22:08:06.585Z,4.67
2019-01-11T22:10:36.097Z,4.75
2019-01-11T22:13:05.618Z,4.82
2019-01-11T22:15:35.211Z,4.73
2019-01-11T22:18:04.827Z,4.84
2019-01-11T22:20:34.367Z,4.75
2019-01-11T22:23:03.844Z,4.66
2019-01-11T22:25:33.315Z,4.74
2019-01-11T22:28:02.814Z,4.83
2019-01-11T22:30:32.320Z,4.75
2019-01-11T22:33:01.825Z,4.65
2019-01-11T22:35:31.327Z,4.67
2019-01-11T22:38:00.849Z,4.67
2019-01-11T22:40:30.397Z,4.64
2019-01-11T22:42:59.850Z,4.56
2019-01-11T22:45:29.364Z,4.65
2019-01-11T22:47:58.966Z,4.66
2019-01-11T22:50:28.491Z,4.74
2019-01-11T22:52:57.961Z,4.66
2019-01-11T22:55:27.468Z,4.67
2019-01-11T22:57:56.929Z,4.68
2019-01-11T23:00:42.026Z,4.57
2019-01-11T23:03:20.580Z,4.51
2019-01-11T23:06:09.139Z,4.59
2019-01-11T23:08:38.863Z,4.64
2019-01-11T23:11:17.521Z,4.53
2019-01-11T23:13:47.075Z,4.64
2019-01-11T23:16:21.743Z,4.57
2019-01-11T23:18:52.976Z,4.57
2019-01-11T23:21:22.465Z,4.60
2019-01-11T23:23:51.967Z,4.62
2019-01-11T23:26:21.483Z,4.52
2019-01-11T23:28:50.969Z,4.43
2019-01-11T23:31:20.475Z,4.46
2019-01-11T23:33:49.964Z,4.64
2019-01-11T23:36:19.508Z,4.55
2019-01-11T23:38:49.284Z,4.66
2019-01-11T23:41:18.776Z,4.64
2019-01-11T23:43:48.353Z,4.62
2019-01-11T23:46:17.938Z,4.50
2019-01-11T23:48:47.443Z,4.54
2019-01-11T23:51:16.955Z,4.58
2019-01-11T23:53:46.427Z,4.58
2019-01-11T23:56:15.918Z,4.67
2019-01-11T23:58:45.403Z,4.75
